createdAt,value
2023-01-09T00:01:46.920Z,89.86
2023-01-09T00:04:13.906Z,90.11
2023-01-09T00:07:03.600Z,90.38
2023-01-09T00:09:30.438Z,90.44
2023-01-09T00:11:57.269Z,90.59
2023-01-09T00:14:24.200Z,90.70
2023-01-09T00:16:50.974Z,90.38
2023-01-09T00:19:20.999Z,90.45
2023-01-09T00:21:53.435Z,90.57
2023-01-09T00:24:21.731Z,89.89
2023-01-09T00:26:54.062Z,90.23
2023-01-09T00:29:22.772Z,90.80
2023-01-09T00:31:54.558Z,90.43
2023-01-09T00:34:25.883Z,90.85
2023-01-09T00:36:55.420Z,90.15
2023-01-09T00:39:26.451Z,91.06
2023-01-09T00:41:58.680Z,90.62
2023-01-09T00:44:32.031Z,90.64
2023-01-09T00:47:04.858Z,90.97
2023-01-09T00:49:34.440Z,90.74
2023-01-09T00:52:01.845Z,90.41
2023-01-09T00:54:29.769Z,90.44
2023-01-09T00:56:59.401Z,90.86
2023-01-09T00:59:29.783Z,90.62
2023-01-09T01:01:59.111Z,90.31
2023-01-09T01:04:57.566Z,90.79
2023-01-09T01:07:40.102Z,90.90
2023-01-09T01:10:23.682Z,90.84
2023-01-09T01:12:50.926Z,90.69
2023-01-09T01:15:18.783Z,90.93
2023-01-09T01:17:45.655Z,91.11
2023-01-09T01:20:16.256Z,91.02
2023-01-09T01:22:43.026Z,91.12
2023-01-09T01:25:11.680Z,91.05
2023-01-09T01:27:44.667Z,90.91
2023-01-09T01:30:13.685Z,91.14
2023-01-09T01:32:43.310Z,90.64
2023-01-09T01:35:14.117Z,91.50
2023-01-09T01:37:41.069Z,91.37
2023-01-09T01:40:10.344Z,90.67
2023-01-09T01:42:37.237Z,90.81
2023-01-09T01:45:24.841Z,91.06
2023-01-09T01:47:59.069Z,91.34
2023-01-09T01:50:55.222Z,91.37
2023-01-09T01:53:45.997Z,91.01
2023-01-09T01:56:18.397Z,91.35
2023-01-09T01:58:50.218Z,91.75
2023-01-09T02:01:25.909Z,91.80
2023-01-09T02:03:55.597Z,91.88
2023-01-09T02:06:22.409Z,91.96
2023-01-09T02:08:51.707Z,92.10
2023-01-09T02:11:21.686Z,92.26
2023-01-09T02:13:53.295Z,92.28
2023-01-09T02:17:02.381Z,92.00
2023-01-09T02:20:02.536Z,92.39
2023-01-09T02:22:50.598Z,92.73
2023-01-09T02:25:35.695Z,93.01
2023-01-09T02:28:24.070Z,92.88
2023-01-09T02:31:16.508Z,92.64
2023-01-09T02:34:02.063Z,92.79
2023-01-09T02:36:42.341Z,92.39
2023-01-09T02:39:18.202Z,92.73
2023-01-09T02:42:12.907Z,93.00
2023-01-09T02:44:45.086Z,92.80
2023-01-09T02:47:21.060Z,92.37
2023-01-09T02:49:51.675Z,92.88
2023-01-09T02:52:48.357Z,92.51
2023-01-09T02:55:18.440Z,92.67
2023-01-09T02:58:10.243Z,92.91
2023-01-09T03:00:49.515Z,92.21
2023-01-09T03:03:44.155Z,92.98
2023-01-09T03:06:21.227Z,92.39
2023-01-09T03:08:54.403Z,92.93
2023-01-09T03:11:22.077Z,93.28
2023-01-09T03:13:56.057Z,93.20
2023-01-09T03:16:32.815Z,93.12
2023-01-09T03:19:00.212Z,92.49
2023-01-09T03:21:28.425Z,92.98
2023-01-09T03:23:57.952Z,93.08
2023-01-09T03:26:25.349Z,92.71
2023-01-09T03:28:52.582Z,93.10
2023-01-09T03:31:19.305Z,93.23
2023-01-09T03:33:48.729Z,93.14
2023-01-09T03:36:20.536Z,93.20
2023-01-09T03:38:47.595Z,93.27
2023-01-09T03:41:19.371Z,93.63
2023-01-09T03:43:50.605Z,93.42
2023-01-09T03:46:26.545Z,93.15
2023-01-09T03:48:53.387Z,92.54
2023-01-09T03:51:20.135Z,92.58
2023-01-09T03:53:46.792Z,92.75
2023-01-09T03:56:13.473Z,93.31
2023-01-09T03:58:39.989Z,93.25
2023-01-09T04:01:12.747Z,92.94
2023-01-09T04:03:40.147Z,93.19
2023-01-09T04:06:07.403Z,93.03
2023-01-09T04:08:36.623Z,93.18
2023-01-09T04:11:09.702Z,93.00
2023-01-09T04:13:36.320Z,93.17
2023-01-09T04:16:06.787Z,93.08
2023-01-09T04:18:33.374Z,93.39
2023-01-09T04:21:00.130Z,92.91
2023-01-09T04:23:29.595Z,92.95
2023-01-09T04:25:56.333Z,93.29
2023-01-09T04:28:29.319Z,92.96
2023-01-09T04:31:02.676Z,93.69
2023-01-09T04:33:29.876Z,93.85
2023-01-09T04:35:59.695Z,93.56
2023-01-09T04:39:16.418Z,93.96
2023-01-09T04:41:48.984Z,93.15
2023-01-09T04:44:17.028Z,93.39
2023-01-09T04:46:43.886Z,93.31
2023-01-09T04:49:11.268Z,93.83
2023-01-09T04:51:41.972Z,94.31
2023-01-09T04:54:20.985Z,94.21
2023-01-09T04:56:47.907Z,93.56
2023-01-09T04:59:18.991Z,93.42
2023-01-09T05:01:55.090Z,93.44
2023-01-09T05:04:28.044Z,93.72
2023-01-09T05:07:55.903Z,93.32
2023-01-09T05:10:22.910Z,93.43
2023-01-09T05:12:52.066Z,93.39
2023-01-09T05:15:18.828Z,93.55
2023-01-09T05:18:13.123Z,93.25
2023-01-09T05:20:45.539Z,92.99
2023-01-09T05:23:14.541Z,93.04
2023-01-09T05:25:47.541Z,93.71
2023-01-09T05:28:14.963Z,93.76
2023-01-09T05:30:44.708Z,93.57
2023-01-09T05:33:38.676Z,93.75
2023-01-09T05:36:07.454Z,93.33
2023-01-09T05:38:34.069Z,93.28
2023-01-09T05:41:15.029Z,93.65
2023-01-09T05:43:44.531Z,93.75
2023-01-09T05:46:26.288Z,93.58
2023-01-09T05:48:58.473Z,93.41
2023-01-09T05:51:37.168Z,93.47
2023-01-09T05:54:49.870Z,93.34
2023-01-09T05:57:28.902Z,93.25
2023-01-09T05:59:56.865Z,93.54
2023-01-09T06:02:23.613Z,93.13
2023-01-09T06:04:53.864Z,93.39
2023-01-09T06:07:26.689Z,93.77
2023-01-09T06:09:53.463Z,93.05
2023-01-09T06:12:23.164Z,93.57
2023-01-09T06:14:57.025Z,93.14
2023-01-09T06:17:39.682Z,93.14
2023-01-09T06:20:31.405Z,93.49
2023-01-09T06:22:58.040Z,93.44
2023-01-09T06:25:24.717Z,93.08
2023-01-09T06:27:52.229Z,93.53
2023-01-09T06:30:22.055Z,93.24
2023-01-09T06:32:52.558Z,93.69
2023-01-09T06:35:22.811Z,93.60
2023-01-09T06:38:39.386Z,93.30
2023-01-09T06:43:46.857Z,93.18
2023-01-09T06:46:16.510Z,93.28
2023-01-09T06:48:43.107Z,93.43
2023-01-09T06:51:12.243Z,93.58
2023-01-09T06:54:09.018Z,93.80
2023-01-09T06:56:35.777Z,93.79
2023-01-09T06:59:58.575Z,93.47
2023-01-09T07:02:51.026Z,93.45
2023-01-09T07:05:17.668Z,93.73
2023-01-09T07:07:44.328Z,93.25
2023-01-09T07:10:14.885Z,93.66
2023-01-09T07:12:45.101Z,93.58
2023-01-09T07:15:11.780Z,93.58
2023-01-09T07:17:38.463Z,93.77
2023-01-09T07:20:05.874Z,93.50
2023-01-09T07:22:36.886Z,93.56
2023-01-09T07:25:06.539Z,94.14
2023-01-09T07:28:02.046Z,93.88
2023-01-09T07:33:34.683Z,94.10
2023-01-09T07:36:16.634Z,94.02
2023-01-09T07:38:43.235Z,94.36
2023-01-09T07:41:19.167Z,94.36
2023-01-09T07:44:40.665Z,93.91
2023-01-09T07:47:09.477Z,94.48
2023-01-09T07:49:42.405Z,93.96
2023-01-09T07:52:15.617Z,94.79
2023-01-09T07:54:42.843Z,94.96
2023-01-09T07:57:15.271Z,94.92
2023-01-09T07:59:41.914Z,94.56
2023-01-09T08:03:05.561Z,94.69
2023-01-09T08:05:32.163Z,94.34
2023-01-09T08:07:58.865Z,94.71
2023-01-09T08:10:37.283Z,95.09
2023-01-09T08:13:39.670Z,94.52
2023-01-09T08:16:06.788Z,94.86
2023-01-09T08:18:33.648Z,94.97
2023-01-09T08:21:04.071Z,95.01
2023-01-09T08:24:05.166Z,94.62
2023-01-09T08:26:31.834Z,94.50
2023-01-09T08:29:23.322Z,94.44
2023-01-09T08:31:56.304Z,94.55
2023-01-09T08:34:43.353Z,94.63
2023-01-09T08:37:15.597Z,94.21
2023-01-09T08:40:09.203Z,94.63
2023-01-09T08:43:04.187Z,95.09
2023-01-09T08:45:49.961Z,95.11
2023-01-09T08:48:17.346Z,95.30
2023-01-09T08:50:44.723Z,95.31
2023-01-09T08:53:11.544Z,95.01
2023-01-09T08:55:38.745Z,95.72
2023-01-09T08:58:08.579Z,95.46
2023-01-09T09:00:46.275Z,95.33
2023-01-09T09:03:12.873Z,95.78
2023-01-09T09:05:42.216Z,95.78
2023-01-09T09:08:09.178Z,95.82
2023-01-09T09:10:39.746Z,95.46
2023-01-09T09:14:17.242Z,96.02
2023-01-09T09:17:04.099Z,96.29
2023-01-09T09:19:30.735Z,96.15
2023-01-09T09:21:57.358Z,95.93
2023-01-09T09:24:29.857Z,96.15
2023-01-09T09:26:56.450Z,96.37
2023-01-09T09:29:55.865Z,96.04
2023-01-09T09:35:07.589Z,96.23
2023-01-09T09:37:34.129Z,96.36
2023-01-09T09:40:31.921Z,96.64
2023-01-09T09:43:35.490Z,96.32
2023-01-09T09:46:42.860Z,96.59
2023-01-09T09:49:31.327Z,96.27
2023-01-09T09:52:41.574Z,96.65
2023-01-09T09:55:46.627Z,96.80
2023-01-09T09:58:38.522Z,96.18
2023-01-09T10:01:07.327Z,96.00
2023-01-09T10:04:01.601Z,95.88
2023-01-09T10:06:51.839Z,96.20
2023-01-09T10:10:00.522Z,95.71
2023-01-09T10:13:11.098Z,96.15
2023-01-09T10:16:16.998Z,96.02
2023-01-09T10:19:39.548Z,96.53
2023-01-09T10:22:53.487Z,96.33
2023-01-09T10:25:20.049Z,96.37
2023-01-09T10:28:13.492Z,96.51
2023-01-09T10:31:14.000Z,96.27
2023-01-09T10:34:46.813Z,96.22
2023-01-09T10:37:44.676Z,96.74
2023-01-09T10:40:31.641Z,96.10
2023-01-09T10:43:29.091Z,94.95
2023-01-09T10:46:01.591Z,95.09
2023-01-09T10:48:37.639Z,95.14
2023-01-09T10:51:42.170Z,94.23
2023-01-09T10:54:35.359Z,93.25
2023-01-09T10:58:26.094Z,93.30
2023-01-09T11:00:52.785Z,93.17
2023-01-09T11:03:46.681Z,93.44
2023-01-09T11:06:32.719Z,94.05
2023-01-09T11:09:01.630Z,93.79
2023-01-09T11:12:26.076Z,92.88
2023-01-09T11:14:53.074Z,90.24
2023-01-09T11:17:34.865Z,84.92
2023-01-09T11:20:27.904Z,87.17
2023-01-09T11:23:03.522Z,88.29
2023-01-09T13:14:56.881Z,91.57
2023-01-09T13:17:55.647Z,92.13
2023-01-09T13:20:48.598Z,91.29
2023-01-09T13:46:30.913Z,89.62
2023-01-09T13:49:48.373Z,89.47
2023-01-09T14:01:09.582Z,89.28
2023-01-09T14:09:01.879Z,89.33
2023-01-09T14:13:00.772Z,90.21
2023-01-09T14:16:32.573Z,90.39
2023-01-09T14:20:03.465Z,89.61
2023-01-09T14:51:41.254Z,89.69
2023-01-09T15:18:56.241Z,88.93
2023-01-09T15:34:25.407Z,88.55
2023-01-09T15:46:28.571Z,89.54
2023-01-09T15:58:17.075Z,89.76
2023-01-09T16:01:58.012Z,89.70
2023-01-09T16:06:50.801Z,90.28
2023-01-09T19:02:51.860Z,93.46
2023-01-09T20:17:56.347Z,95.16
2023-01-09T20:20:50.206Z,94.90
2023-01-09T20:23:19.584Z,94.92
2023-01-09T20:27:16.305Z,94.87
2023-01-09T20:29:44.484Z,94.76
2023-01-09T20:32:26.943Z,94.93
2023-01-09T20:40:04.795Z,95.00
2023-01-09T20:49:55.310Z,94.73
2023-01-09T21:47:13.901Z,94.10
2023-01-09T22:57:30.300Z,94.51
2023-01-09T23:09:26.858Z,94.29
2023-01-09T23:13:29.303Z,94.24
2023-01-09T23:17:18.412Z,93.75
2023-01-09T23:41:51.569Z,93.11
2023-01-09T23:59:29.155Z,92.66
